Time;durP1;ratioP1;P1;durP2;ratioP2;P2;SDS_P1;SDS_P2;PMS_P1;PMS_P2;Temp;Humidity;BMP_temperature;BMP_pressure;BME280_temperature;BME280_humidity;BME280_pressure;Samples;Min_cycle;Max_cycle;Signal;HPM_P1;HPM_P2
2022/12/14 00:01:43;;;;;;;33.92;17.30;;;;;;;2.67;56.85;99562.09;5033308;28;20053;-64
2022/12/14 00:04:15;;;;;;;38.10;17.98;;;;;;;2.58;56.90;99571.97;5015726;28;20042;-64
2022/12/14 00:06:42;;;;;;;33.05;18.60;;;;;;;2.67;57.05;99568.31;5026877;28;20060;-64
2022/12/14 00:09:09;;;;;;;35.53;19.10;;;;;;;2.75;56.75;99575.84;5036123;28;20046;-64
2022/12/14 00:11:37;;;;;;;33.25;18.40;;;;;;;2.80;56.54;99566.81;5043364;28;20076;-65
2022/12/14 00:14:05;;;;;;;32.78;17.58;;;;;;;3.02;56.40;99567.06;5036372;28;20049;-66
2022/12/14 00:16:33;;;;;;;41.80;18.55;;;;;;;2.99;56.11;99564.94;5034212;28;20671;-64
2022/12/14 00:19:02;;;;;;;42.03;18.30;;;;;;;2.70;56.41;99567.75;5002842;28;20037;-68
2022/12/14 00:21:29;;;;;;;32.35;18.20;;;;;;;2.82;57.27;99565.44;5034850;28;20057;-66
2022/12/14 00:23:58;;;;;;;33.70;18.00;;;;;;;2.60;56.77;99562.41;5036093;28;20060;-67
2022/12/14 00:26:28;;;;;;;37.17;18.48;;;;;;;2.69;57.35;99552.53;5026454;28;20056;-65
2022/12/14 00:28:58;;;;;;;31.90;17.60;;;;;;;2.83;57.37;99549.91;5034987;28;20054;-64
2022/12/14 00:31:26;;;;;;;31.23;18.35;;;;;;;2.79;56.79;99548.88;5030799;28;20049;-64
2022/12/14 00:33:54;;;;;;;30.90;18.38;;;;;;;2.90;56.77;99547.63;4998966;28;20057;-64
2022/12/14 00:36:22;;;;;;;30.65;18.05;;;;;;;2.91;56.47;99546.56;5025580;28;20049;-65
2022/12/14 00:38:50;;;;;;;32.63;18.42;;;;;;;2.87;56.44;99540.06;5018277;28;20076;-64
2022/12/14 00:41:18;;;;;;;32.50;17.88;;;;;;;3.05;56.36;99544.75;5033604;28;20060;-64
2022/12/14 00:43:45;;;;;;;31.90;17.85;;;;;;;2.95;56.41;99532.06;5019500;28;20037;-65
2022/12/14 00:46:16;;;;;;;29.00;17.15;;;;;;;3.08;55.91;99528.63;5035558;28;20046;-64
2022/12/14 00:48:44;;;;;;;31.35;18.15;;;;;;;2.90;56.61;99531.31;5035503;28;20049;-66
2022/12/14 00:51:13;;;;;;;29.83;17.52;;;;;;;2.90;56.92;99532.13;5035544;28;20052;-64
2022/12/14 00:53:43;;;;;;;31.25;18.17;;;;;;;2.83;56.65;99522.72;5018098;28;20057;-63
2022/12/14 00:56:10;;;;;;;31.55;17.92;;;;;;;2.94;56.92;99521.50;5034901;28;20056;-63
2022/12/14 00:58:37;;;;;;;31.08;17.60;;;;;;;2.84;56.80;99518.91;5035754;28;20400;-63
2022/12/14 01:01:08;;;;;;;32.63;17.77;;;;;;;3.07;56.69;99520.75;5013754;28;20053;-64
2022/12/14 01:03:35;;;;;;;34.60;17.92;;;;;;;3.34;55.89;99518.19;5018048;28;20053;-63
2022/12/14 01:06:03;;;;;;;33.20;18.27;;;;;;;3.23;55.89;99525.69;5034635;28;20048;-64
2022/12/14 01:08:34;;;;;;;30.02;17.45;;;;;;;3.28;55.91;99525.63;5035458;28;20049;-63
2022/12/14 01:11:04;;;;;;;29.92;17.05;;;;;;;3.24;55.90;99531.97;5033606;28;20050;-63
2022/12/14 01:13:32;;;;;;;30.55;17.40;;;;;;;3.27;55.81;99542.25;5035824;28;20048;-63
2022/12/14 01:16:05;;;;;;;32.65;17.63;;;;;;;3.09;56.55;99551.19;5034120;28;20049;-64
2022/12/14 01:18:34;;;;;;;28.58;17.60;;;;;;;3.25;56.28;99555.31;5035788;28;20064;-63
2022/12/14 01:21:08;;;;;;;33.67;17.50;;;;;;;3.47;56.05;99563.69;5034950;28;20037;-64
2022/12/14 01:23:36;;;;;;;34.85;18.50;;;;;;;3.21;55.92;99565.16;5033835;28;20523;-65
2022/12/14 01:26:03;;;;;;;33.30;17.90;;;;;;;2.79;56.89;99560.56;5033860;28;20524;-63
2022/12/14 01:28:31;;;;;;;35.60;17.92;;;;;;;3.09;57.01;99559.34;5034161;28;20063;-63
2022/12/14 01:30:58;;;;;;;32.63;18.45;;;;;;;3.23;56.38;99546.63;5039290;28;20041;-64
2022/12/14 01:33:25;;;;;;;30.20;17.23;;;;;;;3.41;56.16;99554.00;5054512;28;20053;-64
2022/12/14 01:35:54;;;;;;;30.35;17.48;;;;;;;3.27;55.92;99561.28;5054702;28;20424;-65
2022/12/14 01:38:21;;;;;;;39.35;17.45;;;;;;;2.83;57.37;99563.50;5055064;28;20044;-63
2022/12/14 01:40:49;;;;;;;32.58;18.05;;;;;;;2.68;57.77;99555.53;5054367;28;20048;-63
2022/12/14 01:43:16;;;;;;;31.55;16.70;;;;;;;2.82;57.73;99560.00;5037300;28;20064;-63
2022/12/14 01:45:43;;;;;;;32.30;17.10;;;;;;;2.96;57.50;99557.38;5034076;28;20041;-64
2022/12/14 01:48:12;;;;;;;34.00;16.70;;;;;;;2.83;57.26;99544.47;5033648;28;20045;-66
2022/12/14 01:50:42;;;;;;;32.53;17.42;;;;;;;2.69;58.14;99555.25;5033384;28;20052;-64
2022/12/14 01:53:14;;;;;;;32.28;16.60;;;;;;;2.79;58.32;99560.56;5033705;28;20428;-63
2022/12/14 01:55:46;;;;;;;27.65;17.42;;;;;;;2.93;57.96;99550.59;5033032;28;20046;-63
2022/12/14 01:58:22;;;;;;;31.23;17.92;;;;;;;2.51;59.88;99553.28;5034828;28;20050;-63
2022/12/14 02:00:54;;;;;;;34.03;18.58;;;;;;;2.40;62.71;99549.06;5026545;28;20049;-63
2022/12/14 02:03:25;;;;;;;40.00;19.75;;;;;;;2.43;64.30;99551.19;5037239;28;20048;-62
2022/12/14 02:05:57;;;;;;;38.90;19.50;;;;;;;2.22;66.17;99577.78;5054323;28;20049;-63
2022/12/14 02:08:26;;;;;;;39.72;21.05;;;;;;;1.98;67.43;99573.38;5021300;28;20056;-64
2022/12/14 02:10:54;;;;;;;34.78;19.92;;;;;;;1.89;68.72;99565.03;5036646;28;20056;-63
2022/12/14 02:13:25;;;;;;;36.15;19.83;;;;;;;1.88;68.90;99566.13;5053887;28;20132;-64
2022/12/14 02:15:53;;;;;;;37.45;20.92;;;;;;;1.79;69.26;99561.59;5004231;28;20485;-63
2022/12/14 02:18:23;;;;;;;39.47;20.95;;;;;;;1.82;69.52;99561.84;5053304;28;20511;-63
2022/12/14 02:21:00;;;;;;;38.42;21.17;;;;;;;1.89;69.01;99542.50;5054416;28;20480;-63
2022/12/14 02:23:41;;;;;;;41.05;21.20;;;;;;;2.09;68.70;99532.25;5053647;28;20056;-64
2022/12/14 02:26:29;;;;;;;34.90;20.92;;;;;;;1.96;69.13;99532.94;5020495;28;20049;-64
2022/12/14 02:29:15;;;;;;;37.55;21.15;;;;;;;2.24;68.39;99523.16;5033499;28;20509;-64
2022/12/14 02:31:45;;;;;;;36.20;21.08;;;;;;;2.21;68.64;99513.66;5026094;28;20451;-67
2022/12/14 02:34:50;;;;;;;37.42;20.67;;;;;;;2.13;69.82;99506.16;5014886;28;20133;-66
2022/12/14 02:37:23;;;;;;;39.08;22.02;;;;;;;2.34;69.95;99497.78;5002528;28;20061;-66
2022/12/14 02:40:13;;;;;;;38.10;22.00;;;;;;;2.43;70.56;99477.81;5020793;28;20049;-66
2022/12/14 02:42:55;;;;;;;36.70;21.05;;;;;;;2.21;71.35;99478.34;5034621;28;20049;-66
2022/12/14 02:45:41;;;;;;;42.10;21.05;;;;;;;2.40;71.11;99499.34;5024765;28;20053;-66
2022/12/14 02:48:15;;;;;;;36.28;21.08;;;;;;;2.46;70.68;99492.75;5040309;28;20053;-67
2022/12/14 02:50:50;;;;;;;37.95;21.08;;;;;;;2.14;72.31;99491.47;5005885;28;20071;-66
2022/12/14 02:53:25;;;;;;;37.13;22.00;;;;;;;2.38;71.59;99467.03;5035221;28;20066;-66
2022/12/14 02:55:53;;;;;;;39.10;21.83;;;;;;;2.18;72.16;99459.09;5025473;28;20040;-67
2022/12/14 02:58:40;;;;;;;41.20;22.17;;;;;;;2.05;72.97;99460.63;5040271;28;20041;-66
2022/12/14 03:01:11;;;;;;;37.88;21.63;;;;;;;1.95;73.18;99460.72;5039505;28;20072;-66
2022/12/14 03:03:39;;;;;;;38.72;22.30;;;;;;;2.00;73.63;99471.53;5056475;28;20056;-66
2022/12/14 03:06:24;;;;;;;36.92;20.80;;;;;;;1.88;73.84;99473.03;5019186;28;20052;-67
2022/12/14 03:09:15;;;;;;;35.92;20.10;;;;;;;2.18;73.40;99462.63;5031249;28;20580;-67
2022/12/14 03:12:06;;;;;;;36.90;20.23;;;;;;;2.18;73.03;99465.34;5037222;28;20054;-66
2022/12/14 03:14:38;;;;;;;34.47;20.83;;;;;;;2.11;73.64;99469.53;5036240;28;20053;-66
2022/12/14 03:17:13;;;;;;;34.88;20.77;;;;;;;1.98;74.41;99464.78;5035712;28;20037;-65
2022/12/14 03:20:05;;;;;;;36.28;20.15;;;;;;;1.82;74.13;99472.25;5037880;28;20057;-67
2022/12/14 03:22:48;;;;;;;36.25;21.52;;;;;;;1.91;74.80;99478.69;5017610;28;20065;-67
2022/12/14 03:25:21;;;;;;;36.15;21.23;;;;;;;1.85;74.93;99479.00;5017562;28;20050;-67
2022/12/14 03:27:52;;;;;;;34.53;20.75;;;;;;;1.93;74.80;99468.34;5019626;28;20061;-66
2022/12/14 03:30:19;;;;;;;37.17;21.27;;;;;;;1.94;74.65;99459.09;5035772;28;20045;-66
2022/12/14 03:33:12;;;;;;;37.45;21.10;;;;;;;2.27;74.40;99465.53;5042522;28;20056;-66
2022/12/14 03:35:49;;;;;;;38.75;22.52;;;;;;;2.25;74.03;99462.28;5035376;28;20053;-67
2022/12/14 03:38:20;;;;;;;36.58;20.98;;;;;;;2.20;73.93;99463.16;5025459;28;20057;-67
2022/12/14 03:40:52;;;;;;;36.85;22.20;;;;;;;2.17;73.92;99458.31;4987734;28;20057;-66
2022/12/14 03:43:41;;;;;;;37.80;20.35;;;;;;;2.24;73.03;99458.78;5052160;28;20053;-66
2022/12/14 03:46:40;;;;;;;34.90;20.60;;;;;;;1.98;74.26;99451.19;5025086;28;20037;-67
2022/12/14 03:49:16;;;;;;;36.40;21.85;;;;;;;2.07;74.40;99433.19;5016705;28;20073;-68
2022/12/14 03:51:59;;;;;;;37.30;22.05;;;;;;;2.35;73.65;99434.19;5036642;28;20060;-66
2022/12/14 03:54:32;;;;;;;38.88;20.75;;;;;;;2.32;73.00;99421.19;4995001;28;20065;-67
2022/12/14 03:57:13;;;;;;;39.20;21.70;;;;;;;2.13;73.87;99421.94;5029083;28;20128;-66
2022/12/14 03:59:53;;;;;;;36.55;20.92;;;;;;;2.26;73.83;99420.44;5051791;28;20053;-67
2022/12/14 04:02:32;;;;;;;39.72;21.92;;;;;;;2.61;72.40;99417.28;5035120;28;20425;-66
2022/12/14 04:05:11;;;;;;;34.53;20.75;;;;;;;2.58;72.44;99427.91;5020113;28;20045;-67
2022/12/14 04:07:44;;;;;;;35.17;20.98;;;;;;;2.39;72.58;99432.53;5013378;28;20217;-67
2022/12/14 04:18:58;;;;;;;38.85;21.05;;;;;;;1.93;74.92;99405.09;4982969;28;20054;-66
2022/12/14 04:21:37;;;;;;;36.10;21.48;;;;;;;1.94;74.53;99418.38;4995223;28;20061;-67
2022/12/14 04:27:28;;;;;;;39.42;22.38;;;;;;;1.81;75.14;99393.81;5026299;28;20049;-67
2022/12/14 04:29:59;;;;;;;38.28;21.88;;;;;;;1.99;74.98;99410.16;5025884;28;20061;-67
2022/12/14 04:32:51;;;;;;;35.40;20.85;;;;;;;1.85;75.57;99405.72;5035727;28;20060;-66
2022/12/14 04:35:38;;;;;;;38.15;20.60;;;;;;;1.81;75.94;99400.06;5001554;28;20053;-67
2022/12/14 04:38:10;;;;;;;38.83;21.75;;;;;;;2.11;75.16;99399.69;4999494;28;20513;-67
2022/12/14 04:40:43;;;;;;;39.53;21.40;;;;;;;2.15;74.59;99408.91;4998530;28;21539;-67
2022/12/14 04:43:14;;;;;;;38.42;21.80;;;;;;;2.12;74.75;99420.34;5014904;28;20057;-67
2022/12/14 04:45:52;;;;;;;42.78;24.00;;;;;;;1.82;75.45;99426.13;4999591;28;20050;-67
2022/12/14 04:48:51;;;;;;;46.83;26.35;;;;;;;1.77;75.80;99422.63;5016340;28;20132;-66
2022/12/14 04:51:47;;;;;;;55.72;31.48;;;;;;;1.79;75.71;99431.31;5027031;28;20497;-66
2022/12/14 04:54:38;;;;;;;55.50;30.40;;;;;;;1.68;76.44;99429.78;4981675;28;20058;-66
2022/12/14 04:57:12;;;;;;;51.83;28.47;;;;;;;1.39;76.32;99429.81;5015227;28;20060;-67
2022/12/14 04:59:46;;;;;;;47.85;26.23;;;;;;;1.30;77.85;99436.09;5015753;28;20054;-67
2022/12/14 05:02:51;;;;;;;50.78;26.92;;;;;;;1.50;78.08;99427.81;5014537;28;20053;-67
2022/12/14 05:05:25;;;;;;;44.45;24.23;;;;;;;1.46;77.81;99432.19;5015733;28;20125;-67
2022/12/14 05:08:09;;;;;;;41.85;24.05;;;;;;;1.64;77.39;99431.47;4978765;28;20057;-67
2022/12/14 05:11:06;;;;;;;43.35;24.38;;;;;;;1.88;76.85;99435.00;4997436;28;20045;-67
2022/12/14 05:13:53;;;;;;;42.50;23.48;;;;;;;1.85;76.31;99428.25;5035564;28;20125;-67
2022/12/14 05:16:22;;;;;;;39.05;22.95;;;;;;;1.86;76.17;99415.50;5034046;28;20050;-66
2022/12/14 05:18:49;;;;;;;40.42;22.02;;;;;;;1.46;76.28;99419.44;5016818;28;20054;-67
2022/12/14 05:24:03;;;;;;;39.70;22.60;;;;;;;1.55;77.72;99419.63;5035581;28;20053;-67
2022/12/14 05:26:30;;;;;;;40.45;22.60;;;;;;;1.43;76.51;99422.69;5034996;28;20538;-63
2022/12/14 05:28:58;;;;;;;38.47;21.52;;;;;;;1.51;76.93;99419.38;5034530;28;20056;-63
2022/12/14 05:31:25;;;;;;;39.67;21.92;;;;;;;1.66;76.24;99410.25;5033960;28;20396;-64
2022/12/14 05:33:53;;;;;;;40.63;21.48;;;;;;;1.75;75.76;99413.97;5035545;28;20120;-64
2022/12/14 05:36:20;;;;;;;37.72;20.67;;;;;;;1.71;75.08;99407.53;5009740;28;20069;-64
2022/12/14 05:38:48;;;;;;;39.17;22.08;;;;;;;1.84;74.48;99404.91;5036925;28;20056;-64
2022/12/14 05:41:15;;;;;;;37.30;20.83;;;;;;;1.87;74.31;99412.47;5052570;28;20048;-64
2022/12/14 05:43:42;;;;;;;37.10;20.60;;;;;;;1.90;74.50;99428.19;5034870;28;20060;-64
2022/12/14 05:46:10;;;;;;;37.10;21.70;;;;;;;1.50;75.51;99425.88;5036294;28;20496;-64
2022/12/14 05:48:38;;;;;;;39.97;20.50;;;;;;;1.37;75.26;99426.56;5035280;28;20052;-64
2022/12/14 05:51:07;;;;;;;39.10;19.40;;;;;;;1.42;76.06;99439.25;5034133;28;20446;-64
2022/12/14 05:53:35;;;;;;;37.13;20.95;;;;;;;1.38;76.39;99449.88;5033251;28;20048;-64
2022/12/14 05:56:04;;;;;;;39.35;21.20;;;;;;;1.39;76.33;99446.06;5029184;28;20042;-64
2022/12/14 05:58:33;;;;;;;41.40;22.83;;;;;;;1.17;77.08;99450.31;5034998;28;20045;-64
2022/12/14 06:01:07;;;;;;;37.10;21.77;;;;;;;1.36;77.99;99451.25;5018446;28;20056;-63
2022/12/14 06:03:37;;;;;;;36.10;20.00;;;;;;;1.46;77.20;99453.88;5035016;28;20323;-63
2022/12/14 06:06:08;;;;;;;39.13;20.80;;;;;;;1.65;77.38;99462.94;5033303;28;20144;-64
2022/12/14 06:08:38;;;;;;;37.83;20.73;;;;;;;1.70;76.10;99452.84;5034019;28;20049;-64
2022/12/14 06:11:10;;;;;;;39.55;21.27;;;;;;;1.51;77.17;99448.41;5020686;28;20076;-64
2022/12/14 06:13:38;;;;;;;39.95;21.88;;;;;;;1.51;76.97;99454.66;5033778;28;20057;-67
2022/12/14 06:16:25;;;;;;;35.08;21.25;;;;;;;1.75;76.82;99460.94;5033793;28;20046;-66
2022/12/14 06:18:57;;;;;;;38.05;20.40;;;;;;;1.78;75.73;99462.28;5038826;28;20037;-67
2022/12/14 06:21:28;;;;;;;43.45;20.30;;;;;;;1.75;76.03;99462.81;5056994;28;20049;-66
2022/12/14 06:23:55;;;;;;;35.70;21.13;;;;;;;1.81;75.67;99459.78;5040884;28;20538;-66
2022/12/14 06:26:24;;;;;;;40.17;22.08;;;;;;;1.82;76.12;99453.25;5039826;28;20064;-67
2022/12/14 06:28:51;;;;;;;39.25;22.38;;;;;;;1.85;76.05;99451.84;5021034;28;20428;-66
2022/12/14 06:31:21;;;;;;;37.58;21.63;;;;;;;1.73;77.02;99446.00;5026515;28;20054;-66
2022/12/14 06:33:49;;;;;;;34.38;20.23;;;;;;;1.69;76.69;99451.19;5038046;28;20133;-67
2022/12/14 06:36:22;;;;;;;38.42;22.00;;;;;;;1.83;77.07;99459.50;5052918;28;20057;-67
2022/12/14 06:38:50;;;;;;;38.63;22.67;;;;;;;1.91;77.20;99458.88;5038612;28;20060;-67
2022/12/14 06:41:19;;;;;;;40.60;22.75;;;;;;;1.80;76.81;99458.16;5036467;28;20462;-66
2022/12/14 06:43:49;;;;;;;38.42;21.42;;;;;;;1.53;78.04;99449.75;5004127;28;20056;-66
2022/12/14 06:46:23;;;;;;;41.67;23.00;;;;;;;1.66;78.46;99454.50;5029301;28;20060;-67
2022/12/14 06:48:52;;;;;;;38.70;21.85;;;;;;;1.99;77.87;99452.78;5058319;28;20048;-67
2022/12/14 06:51:21;;;;;;;39.70;22.48;;;;;;;1.63;77.42;99460.50;5057159;28;20082;-66
2022/12/14 06:53:50;;;;;;;41.55;22.10;;;;;;;1.70;77.84;99447.41;5040187;28;20053;-67
2022/12/14 06:56:18;;;;;;;44.90;24.65;;;;;;;1.75;77.02;99466.34;5044517;28;20048;-67
2022/12/14 06:58:47;;;;;;;43.15;22.98;;;;;;;1.53;78.01;99463.31;5040044;28;20045;-67
2022/12/14 07:01:19;;;;;;;48.45;23.85;;;;;;;1.53;78.58;99455.19;5047327;28;20045;-67
2022/12/14 07:03:49;;;;;;;41.60;23.52;;;;;;;1.60;78.71;99471.13;5036548;28;20443;-64
2022/12/14 07:06:17;;;;;;;46.42;24.08;;;;;;;1.94;77.92;99480.81;5036062;28;20054;-67
2022/12/14 07:08:44;;;;;;;41.47;23.67;;;;;;;1.82;77.93;99474.97;5054157;28;20045;-67
2022/12/14 07:11:14;;;;;;;42.08;23.40;;;;;;;1.76;78.29;99481.53;5038691;28;20049;-67
2022/12/14 07:13:41;;;;;;;47.65;23.65;;;;;;;1.75;78.35;99490.78;5021818;28;20493;-67
2022/12/14 07:16:15;;;;;;;44.80;24.45;;;;;;;1.94;78.20;99494.41;5057560;28;20093;-68
2022/12/14 07:18:42;;;;;;;40.92;22.27;;;;;;;2.00;78.12;99497.88;5056233;28;20052;-67
2022/12/14 07:21:12;;;;;;;45.03;23.35;;;;;;;1.98;77.76;99497.34;5041963;28;20515;-66
2022/12/14 07:23:41;;;;;;;44.55;22.50;;;;;;;1.94;77.86;99504.44;5033288;28;20425;-66
2022/12/14 07:26:12;;;;;;;50.70;27.48;;;;;;;1.92;78.32;99501.19;5045140;28;20067;-67
2022/12/14 07:28:39;;;;;;;47.65;25.65;;;;;;;1.80;78.59;99509.75;5040382;28;20128;-67
2022/12/14 07:31:11;;;;;;;41.17;23.83;;;;;;;1.70;79.65;99519.88;5055628;28;20052;-64
2022/12/14 07:33:38;;;;;;;50.17;24.23;;;;;;;2.00;81.25;99525.03;5039725;28;20148;-65
2022/12/14 07:36:25;;;;;;;44.47;23.15;;;;;;;2.40;81.90;99530.03;5052174;28;20045;-65
2022/12/14 07:38:54;;;;;;;45.65;24.08;;;;;;;2.31;79.62;99531.78;5042115;28;20056;-66
2022/12/14 07:41:24;;;;;;;48.28;24.50;;;;;;;2.21;80.05;99532.66;5037120;28;20397;-66
2022/12/14 07:43:53;;;;;;;39.95;22.40;;;;;;;2.75;80.60;99532.34;5019336;28;20041;-66
2022/12/14 07:46:22;;;;;;;44.10;23.75;;;;;;;2.56;78.83;99536.13;5046564;28;20045;-66
2022/12/14 07:48:55;;;;;;;46.03;24.85;;;;;;;2.27;80.56;99538.88;5056161;28;20056;-66
2022/12/14 07:51:25;;;;;;;43.47;23.27;;;;;;;1.91;80.13;99543.03;5051599;28;20131;-63
2022/12/14 07:53:53;;;;;;;50.55;24.83;;;;;;;1.77;80.86;99547.50;5050969;28;20110;-63
2022/12/14 07:56:23;;;;;;;52.70;25.40;;;;;;;2.25;82.01;99541.88;5018567;28;20045;-61
2022/12/14 07:58:53;;;;;;;42.00;24.20;;;;;;;1.87;79.59;99541.97;5038005;28;20052;-62
2022/12/14 08:01:22;;;;;;;49.73;23.87;;;;;;;1.85;80.23;99544.97;5035524;28;20045;-62
2022/12/14 08:03:51;;;;;;;46.83;24.85;;;;;;;1.72;80.51;99542.13;5029024;28;20292;-62
2022/12/14 08:06:19;;;;;;;46.65;24.33;;;;;;;1.59;80.91;99545.47;5021576;28;20057;-62
2022/12/14 08:08:47;;;;;;;45.08;25.42;;;;;;;1.54;81.32;99546.31;4995375;28;20421;-66
2022/12/14 08:11:15;;;;;;;50.13;26.25;;;;;;;1.28;81.08;99558.44;5035450;28;20053;-63
2022/12/14 08:13:43;;;;;;;46.00;25.63;;;;;;;0.96;82.47;99555.38;5034670;28;20136;-63
2022/12/14 08:16:12;;;;;;;51.53;26.63;;;;;;;1.40;82.33;99558.91;5025187;28;20068;-64
2022/12/14 08:18:41;;;;;;;49.72;24.88;;;;;;;1.29;82.07;99562.75;5040087;28;20045;-64
2022/12/14 08:21:09;;;;;;;45.13;25.20;;;;;;;1.57;81.87;99555.81;5032573;28;20049;-66
2022/12/14 08:23:37;;;;;;;43.60;24.38;;;;;;;1.76;81.16;99560.25;5035525;28;20049;-64
2022/12/14 08:26:05;;;;;;;43.53;24.48;;;;;;;1.62;80.60;99558.50;5032886;28;20041;-64
2022/12/14 08:28:34;;;;;;;47.50;25.85;;;;;;;1.77;80.35;99552.94;5025842;28;20049;-64
2022/12/14 08:31:07;;;;;;;43.75;24.35;;;;;;;1.31;80.60;99554.38;5021976;28;20052;-63
2022/12/14 08:33:35;;;;;;;46.97;24.90;;;;;;;1.35;81.40;99552.69;5023041;28;20045;-62
2022/12/14 08:36:26;;;;;;;42.72;25.10;;;;;;;1.79;80.51;99562.41;5012927;28;20041;-62
2022/12/14 08:38:55;;;;;;;46.08;23.92;;;;;;;1.83;79.60;99568.09;5009401;28;20037;-63
2022/12/14 08:41:23;;;;;;;43.33;24.73;;;;;;;1.63;79.48;99569.06;5019672;28;20540;-64
2022/12/14 08:43:55;;;;;;;41.22;23.63;;;;;;;1.79;79.55;99570.56;5005501;28;20045;-63
2022/12/14 08:46:24;;;;;;;44.10;24.48;;;;;;;1.97;78.94;99556.28;5010244;28;20562;-60
2022/12/14 08:48:53;;;;;;;46.95;24.65;;;;;;;2.06;77.59;99567.31;4999674;28;20046;-65
2022/12/14 08:51:22;;;;;;;44.67;24.52;;;;;;;1.96;77.69;99568.25;5008922;28;20064;-63
2022/12/14 08:53:50;;;;;;;45.83;24.42;;;;;;;1.78;78.29;99566.22;5014593;28;20054;-61
2022/12/14 08:56:20;;;;;;;44.35;24.38;;;;;;;1.63;78.96;99579.09;5028762;28;20056;-62
2022/12/14 08:58:48;;;;;;;39.97;23.77;;;;;;;1.82;78.50;99580.03;5009107;28;20057;-63
2022/12/14 09:01:29;;;;;;;43.55;24.30;;;;;;;2.00;77.32;99582.06;5027292;28;20064;-61
2022/12/14 09:04:03;;;;;;;39.13;22.85;;;;;;;1.95;77.09;99579.38;5018074;28;20053;-61
2022/12/14 09:06:33;;;;;;;40.92;23.85;;;;;;;2.07;76.58;99586.06;5008445;28;20049;-64
2022/12/14 09:09:01;;;;;;;;;;;;;;;1.92;75.74;99586.19;5021981;28;20053;-62
2022/12/14 09:11:28;;;;;;;40.63;22.83;;;;;;;2.02;75.48;99577.94;5014661;28;19929;-64
2022/12/14 09:13:55;;;;;;;39.30;23.00;;;;;;;2.22;74.23;99582.38;5024485;28;20056;-64
2022/12/14 09:16:27;;;;;;;42.50;23.48;;;;;;;2.40;73.67;99591.72;5028315;28;20041;-66
2022/12/14 09:18:54;;;;;;;43.00;22.90;;;;;;;2.30;73.13;99603.50;5031946;28;20060;-66
2022/12/14 09:21:22;;;;;;;38.40;22.92;;;;;;;1.93;73.19;99603.28;5024330;28;20057;-65
2022/12/14 09:23:51;;;;;;;43.03;22.90;;;;;;;2.10;73.54;99606.41;5030542;28;20053;-65
2022/12/14 09:26:25;;;;;;;39.83;23.45;;;;;;;1.98;73.33;99631.22;5025890;28;20078;-64
2022/12/14 09:28:54;;;;;;;53.22;23.35;;;;;;;1.84;73.46;99629.41;5021109;28;20053;-61
2022/12/14 09:31:24;;;;;;;45.30;23.05;;;;;;;1.78;74.50;99620.50;5014785;28;20061;-62
2022/12/14 09:33:53;;;;;;;;;;;;;;;1.85;74.33;99626.41;5011796;28;20049;-66
2022/12/14 09:36:26;;;;;;;38.95;21.70;;;;;;;1.85;73.31;99633.75;5014532;28;19921;-66
2022/12/14 09:38:55;;;;;;;41.97;22.52;;;;;;;1.77;73.76;99631.66;5010213;28;20737;-63
2022/12/14 09:41:31;;;;;;;37.80;22.97;;;;;;;2.03;72.94;99633.06;5024918;28;20049;-64
2022/12/14 09:44:10;;;;;;;42.42;23.45;;;;;;;2.11;72.41;99625.13;5022107;28;20048;-64
2022/12/14 09:46:53;;;;;;;44.97;22.15;;;;;;;1.98;72.21;99636.66;5010540;28;20062;-65
2022/12/14 09:49:24;;;;;;;40.95;22.02;;;;;;;2.21;72.56;99635.91;5023909;28;20052;-64
2022/12/14 09:51:53;;;;;;;45.22;22.77;;;;;;;2.73;72.43;99631.59;5021521;28;20046;-63
2022/12/14 09:54:29;;;;;;;42.53;22.23;;;;;;;2.51;69.68;99632.09;5004228;28;20065;-64
2022/12/14 09:57:00;;;;;;;36.13;21.52;;;;;;;2.47;70.27;99635.66;5033002;28;20512;-65
2022/12/14 09:59:30;;;;;;;39.25;21.98;;;;;;;2.24;70.78;99635.34;5021709;28;20485;-64
2022/12/14 10:02:26;;;;;;;44.78;23.13;;;;;;;2.19;70.99;99623.72;4996191;28;20053;-64
2022/12/14 10:05:23;;;;;;;36.38;21.20;;;;;;;2.16;69.62;99635.16;5019356;28;20050;-63
2022/12/14 10:08:17;;;;;;;41.90;22.73;;;;;;;2.28;69.20;99639.09;5024421;28;20050;-65
2022/12/14 10:10:50;;;;;;;38.30;22.05;;;;;;;2.57;68.87;99632.84;5022107;28;20057;-65
2022/12/14 10:13:27;;;;;;;40.53;21.67;;;;;;;2.72;68.57;99627.28;5023297;28;20389;-66
2022/12/14 10:16:25;;;;;;;43.85;22.35;;;;;;;2.59;69.19;99626.03;5026801;28;20049;-67
2022/12/14 10:19:16;;;;;;;45.70;24.17;;;;;;;2.96;68.69;99638.97;5028962;28;20056;-67
2022/12/14 10:21:50;;;;;;;52.13;25.20;;;;;;;2.87;68.93;99649.66;5021591;28;20049;-65
2022/12/14 10:24:41;;;;;;;42.10;23.60;;;;;;;2.24;69.73;99640.78;5013732;28;20074;-64
2022/12/14 10:27:10;;;;;;;39.25;21.55;;;;;;;2.15;69.04;99639.78;5018750;28;20050;-62
2022/12/14 10:29:46;;;;;;;40.22;23.63;;;;;;;2.35;70.07;99641.50;5028453;28;20045;-61
2022/12/14 10:32:24;;;;;;;40.05;23.70;;;;;;;2.57;68.75;99633.66;5006302;28;20073;-64
2022/12/14 10:34:52;;;;;;;43.30;23.65;;;;;;;2.94;67.38;99628.38;5011843;28;20049;-65
2022/12/14 10:37:26;;;;;;;43.95;22.67;;;;;;;2.90;66.99;99632.75;5017862;28;20057;-67
2022/12/14 10:40:09;;;;;;;38.45;22.95;;;;;;;2.82;66.62;99630.69;5003764;28;20049;-65
2022/12/14 10:42:48;;;;;;;40.92;23.63;;;;;;;2.62;65.90;99636.31;5026965;28;20061;-64
2022/12/14 10:45:24;;;;;;;43.97;23.02;;;;;;;2.48;66.33;99631.84;5030836;28;20053;-69
2022/12/14 10:48:45;;;;;;;41.83;23.30;;;;;;;2.65;66.67;99632.25;5028658;28;20053;-64
2022/12/14 10:51:21;;;;;;;46.97;24.30;;;;;;;2.48;66.81;99635.38;5023351;28;20385;-65
2022/12/14 10:53:59;;;;;;;45.88;25.42;;;;;;;2.24;67.75;99642.69;5027569;28;20052;-64
2022/12/14 10:56:32;;;;;;;49.95;24.30;;;;;;;2.53;67.54;99638.03;5024110;28;20064;-64
2022/12/14 10:59:20;;;;;;;52.92;26.73;;;;;;;2.56;65.89;99647.53;5006739;28;20060;-64
2022/12/14 11:02:02;;;;;;;44.00;23.23;;;;;;;2.65;65.26;99648.53;4998372;28;20470;-63
2022/12/14 11:04:33;;;;;;;41.85;22.75;;;;;;;2.51;64.94;99642.16;5000384;28;20064;-63
2022/12/14 11:07:09;;;;;;;39.33;23.08;;;;;;;2.47;65.03;99652.78;5022369;28;20060;-63
2022/12/14 11:09:37;;;;;;;40.25;21.77;;;;;;;2.46;64.66;99658.53;5018050;28;20076;-62
2022/12/14 11:12:26;;;;;;;44.03;23.98;;;;;;;2.54;64.48;99660.59;5025777;28;20045;-63
2022/12/14 11:15:01;;;;;;;41.58;22.63;;;;;;;2.41;64.42;99647.72;5017464;28;20053;-64
2022/12/14 11:17:38;;;;;;;42.83;23.27;;;;;;;2.38;64.89;99651.78;5020748;28;20049;-65
2022/12/14 11:20:21;;;;;;;43.88;23.88;;;;;;;2.40;65.49;99649.59;5020648;28;20061;-65
2022/12/14 11:22:50;;;;;;;44.67;23.08;;;;;;;2.64;65.13;99639.56;5026116;28;20092;-65
2022/12/14 11:25:36;;;;;;;45.23;24.70;;;;;;;2.60;65.61;99651.31;5019604;28;20531;-65
2022/12/14 11:28:34;;;;;;;47.88;24.42;;;;;;;2.80;65.25;99648.38;5024019;28;20042;-65
2022/12/14 11:31:12;;;;;;;44.90;25.23;;;;;;;2.76;65.11;99650.88;5017459;28;20478;-65
2022/12/14 11:33:44;;;;;;;44.80;25.35;;;;;;;2.48;65.52;99657.13;5019273;28;20057;-65
2022/12/14 11:36:25;;;;;;;50.83;26.95;;;;;;;2.54;64.95;99653.28;5016563;28;20056;-66
2022/12/14 11:38:58;;;;;;;59.58;32.75;;;;;;;2.76;64.50;99660.91;5026241;28;20038;-65
2022/12/14 11:41:32;;;;;;;51.03;28.08;;;;;;;2.96;64.57;99669.69;5026039;28;20046;-65
2022/12/14 11:44:05;;;;;;;49.60;26.70;;;;;;;2.96;64.21;99663.44;5026605;28;20045;-64
2022/12/14 11:46:42;;;;;;;48.30;27.25;;;;;;;3.02;64.02;99667.69;5033511;28;20045;-65
2022/12/14 11:49:27;;;;;;;51.75;27.35;;;;;;;2.94;64.09;99665.63;5034672;28;20053;-64
2022/12/14 11:51:54;;;;;;;68.50;30.08;;;;;;;2.45;64.93;99678.63;5031376;28;20060;-66
2022/12/14 11:54:22;;;;;;;54.90;29.45;;;;;;;2.23;66.16;99665.50;5027634;28;20060;-66
2022/12/14 11:56:50;;;;;;;54.85;29.40;;;;;;;2.21;66.26;99657.63;5028361;28;20056;-65
2022/12/14 11:59:18;;;;;;;51.85;26.92;;;;;;;2.40;66.25;99660.47;5030837;28;20058;-66
2022/12/14 12:01:45;;;;;;;60.58;26.42;;;;;;;2.75;65.15;99654.69;5014241;28;20060;-65
2022/12/14 12:04:14;;;;;;;54.40;28.00;;;;;;;2.85;63.97;99657.28;5021371;28;20050;-65
2022/12/14 12:06:42;;;;;;;50.78;25.58;;;;;;;2.63;63.09;99653.47;5016729;28;20068;-66
2022/12/14 12:09:26;;;;;;;52.08;26.08;;;;;;;2.85;63.64;99648.31;5005612;28;20049;-64
2022/12/14 12:11:54;;;;;;;50.20;25.98;;;;;;;2.84;62.78;99641.28;5031167;28;20045;-65